VYMD/MDL METAR and TAF weather

Enter ICAO airport designator
Station Type Date Time Source
VYMD METAR 2020/11/25 11:30 UTC NOAA

VYMD 251130Z 36003KT 6000 FEW025 26/20 Q1013 NOSIG


Station Type Date Time Source
VYMD Decoded METAR 2020/11/25 11:30 UTC NOAA

Station name not available
Nov 25, 2020 - 06:30 AM EST / 2020.11.25 1130 UTC
Wind: from the N (360 degrees) at 3 MPH (3 KT):0
Visibility: 3 mile(s):0
Sky conditions: mostly clear
Temperature: 78 F (26 C)
Dew Point: 68 F (20 C)
Relative Humidity: 69%
Pressure (altimeter): 29.91 in. Hg (1013 hPa)
ob: VYMD 251130Z 36003KT 6000 FEW025 26/20 Q1013 NOSIG
cycle: 11

Station Type Date Time Source
VYMD TAF 2020/11/25 18:00 UTC NOAA

TAF VYMD 251700Z 2518/2618 32005KT 7000 FEW020
TEMPO 2518/2524 31007KT 6000 SCT020

Example: see airport list